Time;durP1;ratioP1;P1;durP2;ratioP2;P2;SDS_P1;SDS_P2;PMS_P1;PMS_P2;Temp;Humidity;BMP_temperature;BMP_pressure;BME280_temperature;BME280_humidity;BME280_pressure;Samples;Min_cycle;Max_cycle;Signal;HPM_P1;HPM_P2
2023/04/11 00:00:52;;;;;;;1.90;1.70;;;9.80;1.00;10.30;93718.00;;;;7398511;19;20117;-76
2023/04/11 00:03:26;;;;;;;1.95;1.55;;;9.70;1.00;10.30;93702.00;;;;7395556;19;20169;-76
2023/04/11 00:05:54;;;;;;;2.30;1.50;;;9.60;1.00;10.50;93683.00;;;;7398336;19;20157;-76
2023/04/11 00:08:28;;;;;;;2.22;1.88;;;9.70;1.00;10.60;93677.00;;;;7398713;19;20148;-76
2023/04/11 00:10:55;;;;;;;2.85;1.70;;;9.80;1.00;10.60;93691.00;;;;7393871;19;20161;-77
2023/04/11 00:13:29;;;;;;;2.45;2.00;;;9.80;1.00;10.50;93699.00;;;;7399611;19;20140;-76
2023/04/11 00:15:57;;;;;;;2.00;1.52;;;9.80;1.00;10.60;93682.00;;;;7395853;19;20133;-76
2023/04/11 00:18:34;;;;;;;2.20;1.38;;;9.90;1.00;10.80;93665.00;;;;7398499;19;20586;-76
2023/04/11 00:21:07;;;;;;;2.35;1.73;;;9.90;1.00;10.80;93672.00;;;;7399175;19;20145;-76
2023/04/11 00:23:41;;;;;;;3.03;1.48;;;10.00;1.00;10.60;93653.00;;;;7399118;19;20180;-76
2023/04/11 00:26:15;;;;;;;3.65;1.90;;;9.90;1.00;10.40;93641.00;;;;7396698;19;20138;-76
2023/04/11 00:28:49;;;;;;;3.40;2.05;;;9.90;1.00;10.30;93665.00;;;;7399757;19;20153;-76
2023/04/11 00:31:16;;;;;;;5.38;1.73;;;9.70;1.00;10.00;93683.00;;;;7398991;19;20125;-76
2023/04/11 00:33:50;;;;;;;3.80;1.80;;;9.60;1.00;9.90;93674.00;;;;7387806;19;20204;-77
2023/04/11 00:36:17;;;;;;;1.60;1.45;;;9.50;1.00;10.10;93690.00;;;;7392243;19;20129;-77
2023/04/11 00:38:51;;;;;;;1.77;1.42;;;9.50;15.20;10.10;93666.00;;;;7398126;19;20625;-75
2023/04/11 00:41:18;;;;;;;1.80;1.52;;;9.50;25.60;10.10;93685.00;;;;7398478;19;20145;-76
2023/04/11 00:43:53;;;;;;;3.60;1.73;;;9.50;31.60;10.10;93678.00;;;;7398614;19;20116;-76
2023/04/11 00:46:20;;;;;;;2.92;2.33;;;9.50;30.00;10.00;93689.00;;;;7395677;19;20491;-76
2023/04/11 00:48:54;;;;;;;2.83;1.58;;;9.50;40.70;10.10;93690.00;;;;7398317;19;20580;-76
2023/04/11 00:51:22;;;;;;;4.10;1.80;;;9.50;42.80;10.00;93690.00;;;;7397486;19;20128;-77
2023/04/11 00:53:56;;;;;;;1.75;1.50;;;9.50;65.40;10.00;93664.00;;;;7398468;19;20121;-77
2023/04/11 00:56:24;;;;;;;3.42;1.90;;;9.50;71.50;9.80;93655.00;;;;7396161;19;20133;-76
2023/04/11 00:58:58;;;;;;;3.13;1.92;;;9.40;99.90;9.60;93690.00;;;;7409422;19;20147;-77
2023/04/11 01:01:25;;;;;;;2.30;1.80;;;9.20;99.90;9.40;93692.00;;;;7411835;19;20120;-77
2023/04/11 01:03:59;;;;;;;4.32;1.88;;;9.00;99.90;9.20;93692.00;;;;7411489;19;20180;-77
2023/04/11 01:06:34;;;;;;;5.60;1.83;;;8.80;1.00;9.20;93664.00;;;;7408385;19;20208;-78
2023/04/11 01:09:15;;;;;;;5.20;2.00;;;8.70;34.70;8.80;93683.00;;;;7411246;19;20152;-79
2023/04/11 01:11:42;;;;;;;3.33;1.90;;;8.50;99.90;8.50;93664.00;;;;7410128;19;20183;-79
2023/04/11 01:14:18;;;;;;;2.73;1.90;;;8.40;1.00;8.40;93699.00;;;;7410866;19;20149;-78
2023/04/11 01:16:47;;;;;;;2.73;1.90;;;8.30;99.90;8.40;93693.00;;;;7408788;19;20135;-78
2023/04/11 01:19:25;;;;;;;2.97;2.00;;;8.20;1.00;8.30;93688.00;;;;7406246;19;20127;-78
2023/04/11 01:22:01;;;;;;;4.73;2.07;;;8.10;9.00;8.20;93685.00;;;;7411534;19;20132;-78
2023/04/11 01:24:35;;;;;;;2.13;1.90;;;8.00;99.90;8.10;93710.00;;;;7409856;19;20541;-77
2023/04/11 01:27:02;;;;;;;2.60;2.00;;;8.00;1.00;8.00;93711.00;;;;7410235;19;20607;-76
2023/04/11 01:29:36;;;;;;;2.40;1.80;;;7.90;99.90;7.90;93723.00;;;;7409991;19;20131;-76
2023/04/11 01:32:05;;;;;;;3.70;1.97;;;7.80;99.90;8.10;93730.00;;;;7406179;19;20196;-76
2023/04/11 01:34:42;;;;;;;3.10;2.00;;;7.80;1.00;8.00;93730.00;;;;7410582;19;20176;-76
2023/04/11 01:37:09;;;;;;;2.43;1.50;;;7.80;1.00;8.00;93730.00;;;;7410059;19;20172;-76
2023/04/11 01:39:43;;;;;;;1.20;1.10;;;7.80;84.90;7.80;93730.00;;;;7410202;19;20507;-76
2023/04/11 01:42:12;;;;;;;1.47;1.03;;;7.70;99.90;7.60;93745.00;;;;7409885;19;20153;-76
2023/04/11 01:44:47;;;;;;;0.83;0.73;;;7.70;99.90;7.40;93706.00;;;;7409361;19;20196;-76
2023/04/11 01:47:14;;;;;;;1.77;0.90;;;7.60;99.90;7.20;93724.00;;;;7409399;19;20607;-76
2023/04/11 01:49:48;;;;;;;0.70;0.70;;;7.40;1.00;7.20;93721.00;;;;7410586;19;20153;-76
2023/04/11 01:52:15;;;;;;;1.33;0.63;;;7.20;1.00;7.00;93741.00;;;;7410156;19;20116;-76
2023/04/11 01:54:42;;;;;;;0.73;0.47;;;7.10;8.70;7.00;93729.00;;;;7408388;19;20449;-75
2023/04/11 01:57:16;;;;;;;0.50;0.50;;;7.00;47.30;7.00;93757.00;;;;7409380;19;20204;-76
2023/04/11 01:59:43;;;;;;;1.10;0.53;;;7.00;99.90;6.90;93754.00;;;;7411302;19;20133;-77
2023/04/11 02:02:17;;;;;;;1.27;0.60;;;6.90;99.90;6.90;93772.00;;;;7409231;19;20150;-75
2023/04/11 02:04:44;;;;;;;1.80;0.80;;;6.80;99.90;6.90;93785.00;;;;7410059;19;20120;-76
2023/04/11 02:07:24;;;;;;;1.20;0.70;;;6.80;99.90;6.80;93787.00;;;;7408946;19;20137;-76
2023/04/11 02:09:52;;;;;;;0.60;0.60;;;6.80;99.90;6.90;93775.00;;;;7399034;19;20149;-76
2023/04/11 02:12:26;;;;;;;2.40;0.67;;;6.70;99.90;6.50;93749.00;;;;7402013;19;20165;-76
2023/04/11 02:15:00;;;;;;;2.63;0.70;;;6.60;99.90;6.60;93739.00;;;;7401572;19;20132;-76
2023/04/11 02:17:35;;;;;;;1.27;0.50;;;6.60;99.90;6.60;93741.00;;;;7402722;19;20143;-76
2023/04/11 02:20:13;;;;;;;1.37;0.80;;;6.50;99.90;6.50;93740.00;;;;7401893;19;20143;-76
2023/04/11 02:22:47;;;;;;;3.20;0.80;;;6.50;99.90;6.60;93746.00;;;;7401513;19;20153;-77
2023/04/11 02:25:27;;;;;;;4.23;0.70;;;6.50;99.90;6.50;93743.00;;;;7402725;19;20132;-76
2023/04/11 02:28:01;;;;;;;1.10;0.60;;;6.50;1.00;6.50;93734.00;;;;7403259;19;20141;-76
2023/04/11 02:30:35;;;;;;;2.53;0.83;;;6.40;1.00;6.40;93742.00;;;;7401206;19;20508;-76
2023/04/11 02:33:10;;;;;;;0.80;0.60;;;6.40;1.00;6.40;93746.00;;;;7403129;19;20141;-76
2023/04/11 02:35:48;;;;;;;3.80;0.50;;;6.40;1.00;6.50;93739.00;;;;7401031;19;20141;-76
2023/04/11 02:38:22;;;;;;;0.83;0.50;;;6.40;1.00;6.50;93727.00;;;;7403231;19;20149;-76
2023/04/11 02:40:56;;;;;;;1.97;0.63;;;6.40;1.00;6.40;93735.00;;;;7402824;19;20125;-76
2023/04/11 02:43:30;;;;;;;0.87;0.70;;;6.30;1.00;6.40;93758.00;;;;7401292;19;20127;-76
2023/04/11 02:45:57;;;;;;;2.47;0.80;;;6.30;1.00;6.40;93736.00;;;;7400338;19;20152;-77
2023/04/11 02:48:39;;;;;;;2.70;0.70;;;6.20;1.00;6.40;93714.00;;;;7401850;19;20144;-77
2023/04/11 02:51:06;;;;;;;0.40;0.40;;;6.20;1.00;6.30;93715.00;;;;7400420;19;20152;-76
2023/04/11 02:53:40;;;;;;;0.97;0.47;;;6.20;1.00;6.30;93717.00;;;;7400916;19;20164;-77
2023/04/11 02:56:10;;;;;;;1.93;0.70;;;6.10;1.00;6.30;93717.00;;;;7398535;19;20152;-77
2023/04/11 02:58:52;;;;;;;1.73;0.70;;;6.10;1.00;6.50;93732.00;;;;7402444;19;20589;-77
2023/04/11 03:01:26;;;;;;;0.57;0.57;;;6.10;1.00;6.50;93738.00;;;;7400096;19;20121;-77
2023/04/11 03:04:00;;;;;;;3.37;0.70;;;6.10;1.00;6.30;93747.00;;;;7400241;19;20132;-77
2023/04/11 03:06:40;;;;;;;2.07;0.70;;;6.10;1.00;6.40;93760.00;;;;7398678;19;20149;-77
2023/04/11 03:09:07;;;;;;;2.43;0.87;;;6.10;1.00;6.30;93736.00;;;;7395968;19;20141;-78
2023/04/11 03:11:42;;;;;;;1.27;0.90;;;6.10;1.00;6.30;93730.00;;;;7401536;19;20176;-77
2023/04/11 03:14:12;;;;;;;0.70;0.70;;;6.10;1.00;6.30;93724.00;;;;7401055;19;20117;-78
2023/04/11 03:16:46;;;;;;;1.37;0.50;;;6.10;1.00;6.30;93707.00;;;;7396057;19;20131;-77
2023/04/11 03:19:21;;;;;;;5.60;0.90;;;6.10;1.00;6.20;93715.00;;;;7399811;19;20493;-77
2023/04/11 03:21:48;;;;;;;0.77;0.77;;;6.10;1.00;6.20;93717.00;;;;7398063;19;20148;-77
2023/04/11 03:24:22;;;;;;;1.60;0.80;;;6.10;1.00;6.30;93711.00;;;;7400265;19;20157;-77
2023/04/11 03:26:49;;;;;;;1.77;0.90;;;6.00;1.00;6.50;93686.00;;;;7398846;19;20614;-76
2023/04/11 03:29:23;;;;;;;3.33;1.00;;;6.10;1.00;6.40;93684.00;;;;7400309;19;20199;-77
2023/04/11 03:31:50;;;;;;;3.30;1.37;;;6.10;1.00;6.40;93708.00;;;;7398406;19;20557;-77
2023/04/11 03:34:25;;;;;;;1.33;0.87;;;6.10;1.00;6.50;93695.00;;;;7399990;19;20133;-77
2023/04/11 03:36:52;;;;;;;2.03;1.20;;;6.10;1.00;6.50;93703.00;;;;7396775;19;20124;-77
2023/04/11 03:39:26;;;;;;;3.47;1.07;;;6.10;1.00;6.40;93705.00;;;;7398830;19;20152;-77
2023/04/11 03:42:01;;;;;;;3.93;1.23;;;6.20;1.00;6.30;93704.00;;;;7398235;19;20199;-77
2023/04/11 03:44:34;;;;;;;2.70;0.80;;;6.20;5.90;6.30;93722.00;;;;7399232;19;20172;-77
2023/04/11 03:47:01;;;;;;;1.10;0.70;;;6.20;9.00;6.30;93722.00;;;;7399910;19;20133;-77
2023/04/11 03:49:35;;;;;;;1.50;0.63;;;6.20;14.30;6.30;93710.00;;;;7399052;19;20136;-78
2023/04/11 03:52:04;;;;;;;0.83;0.53;;;6.20;1.00;6.10;93698.00;;;;7400350;19;20161;-78
2023/04/11 03:54:38;;;;;;;1.27;0.60;;;6.10;1.00;6.10;93727.00;;;;7398712;19;20132;-78
2023/04/11 03:57:13;;;;;;;0.70;0.37;;;6.00;1.00;6.00;93726.00;;;;7398425;19;20133;-77
2023/04/11 03:59:47;;;;;;;0.50;0.50;;;6.00;1.00;5.80;93738.00;;;;7399476;19;20137;-76
2023/04/11 04:02:14;;;;;;;0.23;0.23;;;6.00;1.00;5.90;93740.00;;;;7397779;19;20179;-76
2023/04/11 04:04:45;;;;;;;0.50;0.50;;;5.90;1.00;5.60;93726.00;;;;7397575;19;20133;-75
2023/04/11 04:07:29;;;;;;;1.73;0.30;;;5.80;1.00;5.70;93728.00;;;;7398963;19;20632;-76
2023/04/11 04:10:04;;;;;;;1.10;0.47;;;5.70;1.00;5.60;93714.00;;;;7399957;19;20152;-75
2023/04/11 04:12:33;;;;;;;0.57;0.40;;;5.60;99.90;5.50;93729.00;;;;7398419;19;20117;-76
2023/04/11 04:15:08;;;;;;;0.50;0.47;;;5.50;1.00;5.40;93743.00;;;;7397758;19;20142;-75
2023/04/11 04:17:37;;;;;;;0.50;0.40;;;5.50;99.90;5.30;93745.00;;;;7392071;19;20166;-76
2023/04/11 04:20:11;;;;;;;1.63;0.60;;;5.40;99.90;5.30;93731.00;;;;7391283;19;20176;-78
2023/04/11 04:22:38;;;;;;;1.03;0.20;;;5.30;99.90;5.20;93736.00;;;;7395781;19;20486;-77
2023/04/11 04:25:14;;;;;;;0.60;0.53;;;5.30;99.90;5.20;93738.00;;;;7395403;19;20629;-78
2023/04/11 04:27:52;;;;;;;0.73;0.60;;;5.30;1.00;5.10;93724.00;;;;7395229;19;20132;-77
2023/04/11 04:30:22;;;;;;;0.47;0.40;;;5.20;1.00;5.20;93717.00;;;;7393371;19;20129;-77
2023/04/11 04:32:57;;;;;;;0.60;0.47;;;5.20;1.00;5.10;93766.00;;;;7393029;19;20134;-78
2023/04/11 04:35:31;;;;;;;1.83;0.70;;;5.20;1.00;5.20;93771.00;;;;7394608;19;20133;-79
2023/04/11 04:38:05;;;;;;;0.50;0.50;;;5.10;1.00;5.10;93794.00;;;;7393771;19;21061;-76
2023/04/11 04:40:40;;;;;;;0.63;0.60;;;5.10;1.00;5.10;93790.00;;;;7394704;19;20600;-75
2023/04/11 04:43:22;;;;;;;1.83;0.50;;;5.10;1.00;5.10;93789.00;;;;7395621;19;20132;-75
2023/04/11 04:45:56;;;;;;;2.10;0.60;;;5.10;1.00;4.90;93787.00;;;;7393569;19;20161;-75
2023/04/11 04:48:31;;;;;;;1.60;0.73;;;5.00;99.90;4.90;93806.00;;;;7393764;19;20613;-75
2023/04/11 04:51:06;;;;;;;2.43;0.80;;;4.90;99.90;5.00;93800.00;;;;7387132;19;20142;-77
2023/04/11 04:53:40;;;;;;;4.93;0.80;;;4.90;99.90;4.90;93802.00;;;;7368655;19;20155;-76
2023/04/11 04:56:07;;;;;;;2.20;0.90;;;4.80;99.90;4.80;93817.00;;;;7378982;19;20162;-76
2023/04/11 04:58:35;;;;;;;1.23;0.80;;;4.80;99.90;4.90;93812.00;;;;7378846;19;20152;-78
2023/04/11 05:01:10;;;;;;;1.60;0.70;;;4.80;1.00;4.70;93843.00;;;;7379996;19;20591;-78
2023/04/11 05:03:37;;;;;;;2.03;0.70;;;4.80;1.00;4.50;93843.00;;;;7382503;19;20173;-77
2023/04/11 05:06:24;;;;;;;3.13;0.63;;;4.70;99.90;4.60;93830.00;;;;7382516;19;20873;-77
2023/04/11 05:09:18;;;;;;;3.30;0.93;;;4.60;99.90;4.50;93839.00;;;;7382929;19;20144;-77
2023/04/11 05:11:53;;;;;;;1.73;0.93;;;4.50;99.90;4.50;93839.00;;;;7387006;19;20132;-77
2023/04/11 05:14:27;;;;;;;2.00;0.97;;;4.50;99.90;4.30;93848.00;;;;7384502;19;20522;-78
2023/04/11 05:16:56;;;;;;;3.00;1.00;;;4.50;99.90;4.50;93826.00;;;;7386907;19;20154;-79
2023/04/11 05:19:32;;;;;;;5.23;1.10;;;4.40;99.90;4.50;93838.00;;;;7385214;19;20149;-77
2023/04/11 05:22:06;;;;;;;1.47;0.90;;;4.40;99.90;4.40;93841.00;;;;7385813;19;20136;-77
2023/04/11 05:24:40;;;;;;;2.33;0.87;;;4.30;99.90;4.30;93824.00;;;;7383093;19;20181;-76
2023/04/11 05:27:14;;;;;;;3.27;1.00;;;4.40;99.90;4.50;93836.00;;;;7384037;19;20156;-78
2023/04/11 05:29:48;;;;;;;4.30;1.03;;;4.30;99.90;4.50;93834.00;;;;7384223;19;20138;-76
2023/04/11 05:32:16;;;;;;;2.80;0.80;;;4.30;99.90;4.40;93831.00;;;;7383113;19;20625;-78
2023/04/11 05:34:54;;;;;;;3.70;0.83;;;4.30;99.90;4.50;93818.00;;;;7380668;19;20152;-77
2023/04/11 05:37:25;;;;;;;3.83;1.00;;;4.20;99.90;4.40;93813.00;;;;7384119;19;20488;-76
2023/04/11 05:39:59;;;;;;;1.93;0.83;;;4.20;99.90;4.40;93821.00;;;;7382519;19;20584;-76
2023/04/11 05:42:26;;;;;;;3.73;0.90;;;4.20;99.90;4.30;93812.00;;;;7384046;19;20133;-76
2023/04/11 05:45:00;;;;;;;1.53;0.90;;;4.20;99.90;4.20;93818.00;;;;7385925;19;20500;-76
2023/04/11 05:47:34;;;;;;;4.13;1.20;;;4.20;99.90;4.30;93815.00;;;;7391144;19;20129;-76
2023/04/11 05:50:09;;;;;;;3.13;0.77;;;4.20;99.90;4.30;93831.00;;;;7389768;19;20156;-77
2023/04/11 05:52:43;;;;;;;3.43;1.20;;;4.20;99.90;4.20;93806.00;;;;7389368;19;20133;-77
2023/04/11 05:55:11;;;;;;;2.10;1.20;;;4.20;99.90;4.30;93830.00;;;;7389009;19;20132;-76
2023/04/11 05:57:45;;;;;;;5.87;1.23;;;4.20;99.90;4.40;93834.00;;;;7391287;19;20141;-76
2023/04/11 06:00:20;;;;;;;5.17;1.40;;;4.20;99.90;4.50;93804.00;;;;7389651;19;20574;-76
2023/04/11 06:02:48;;;;;;;5.20;1.30;;;4.30;99.90;4.60;93805.00;;;;7389792;19;20180;-77
2023/04/11 06:05:35;;;;;;;6.50;1.40;;;4.30;99.90;4.60;93801.00;;;;7388890;19;20143;-77
2023/04/11 06:08:10;;;;;;;8.50;1.70;;;4.40;99.90;4.70;93815.00;;;;7390018;19;20474;-77
2023/04/11 06:10:46;;;;;;;3.50;1.40;;;4.40;99.90;4.70;93816.00;;;;7389681;19;20604;-77
2023/04/11 06:13:14;;;;;;;5.30;1.57;;;4.50;99.90;4.60;93821.00;;;;7392115;19;20129;-76
2023/04/11 06:15:50;;;;;;;5.07;1.57;;;4.60;99.90;4.90;93823.00;;;;7393101;19;20179;-78
2023/04/11 06:18:18;;;;;;;3.57;1.50;;;4.60;99.90;5.00;93834.00;;;;7391139;19;20679;-76
2023/04/11 06:20:53;;;;;;;4.00;1.33;;;4.70;99.90;4.90;93837.00;;;;7387164;19;20148;-77
2023/04/11 06:23:30;;;;;;;5.47;1.93;;;4.70;99.90;5.00;93825.00;;;;7394779;19;20147;-77
2023/04/11 06:26:04;;;;;;;8.63;1.70;;;4.80;99.90;4.90;93855.00;;;;7395968;19;20137;-75
2023/04/11 06:28:32;;;;;;;8.57;1.90;;;4.80;68.00;5.00;93832.00;;;;7389261;19;20153;-75
2023/04/11 06:31:08;;;;;;;6.23;1.40;;;4.80;1.00;5.10;93846.00;;;;7389630;19;20601;-75
2023/04/11 06:33:45;;;;;;;7.23;1.60;;;4.80;1.00;5.00;93858.00;;;;7389875;19;20144;-75
2023/04/11 06:36:19;;;;;;;12.80;1.80;;;4.80;1.00;5.00;93840.00;;;;7387999;19;20144;-76
2023/04/11 06:38:48;;;;;;;7.20;1.90;;;4.80;1.00;4.80;93813.00;;;;7387382;19;20148;-78
2023/04/11 06:41:15;;;;;;;4.80;1.83;;;4.90;99.90;4.70;93844.00;;;;7386524;19;20125;-78
2023/04/11 06:43:49;;;;;;;6.67;1.70;;;4.90;1.00;4.90;93868.00;;;;7385377;19;20156;-77
2023/04/11 06:46:17;;;;;;;6.10;1.83;;;4.90;99.90;4.80;93849.00;;;;7384115;19;20144;-78
2023/04/11 06:48:45;;;;;;;6.97;1.90;;;5.00;99.90;4.90;93857.00;;;;7385361;19;20151;-77
2023/04/11 06:51:19;;;;;;;8.47;1.60;;;4.90;99.90;5.00;93857.00;;;;7385941;19;20156;-78
2023/04/11 06:53:47;;;;;;;8.77;2.53;;;4.90;99.90;4.90;93857.00;;;;7386519;19;20149;-78
2023/04/11 06:56:21;;;;;;;6.27;1.80;;;4.80;99.90;5.00;93870.00;;;;7384467;19;20141;-77
2023/04/11 06:58:49;;;;;;;5.77;1.90;;;4.80;99.90;4.90;93879.00;;;;7385018;19;20212;-77
2023/04/11 07:01:32;;;;;;;8.40;1.70;;;4.80;99.90;4.90;93876.00;;;;7384245;19;20208;-77
2023/04/11 07:04:01;;;;;;;8.10;1.87;;;4.90;99.90;4.90;93864.00;;;;7385276;19;20128;-77
2023/04/11 07:06:42;;;;;;;8.37;1.90;;;5.00;99.90;4.90;93871.00;;;;7384635;19;20175;-75
2023/04/11 07:09:16;;;;;;;5.63;1.93;;;5.00;99.90;4.90;93893.00;;;;7381674;19;20128;-75
2023/04/11 07:11:50;;;;;;;7.97;2.10;;;5.10;99.90;5.00;93920.00;;;;7385620;19;20120;-77
2023/04/11 07:14:18;;;;;;;6.07;1.80;;;5.10;99.90;4.80;93904.00;;;;7379651;19;20148;-77
2023/04/11 07:16:51;;;;;;;6.73;1.70;;;5.10;99.90;4.90;93932.00;;;;7382874;19;20125;-76
2023/04/11 07:19:18;;;;;;;9.07;1.90;;;5.10;48.60;4.70;93909.00;;;;7380072;19;20159;-76
2023/04/11 07:21:47;;;;;;;8.63;2.13;;;5.10;1.00;4.90;93921.00;;;;7377468;19;20160;-77
2023/04/11 07:24:21;;;;;;;7.27;1.60;;;5.10;1.00;5.10;93893.00;;;;7381565;19;20125;-77
2023/04/11 07:26:50;;;;;;;5.07;1.70;;;5.20;65.50;5.10;93911.00;;;;7379320;19;20129;-74
2023/04/11 07:29:27;;;;;;;9.27;2.10;;;5.20;2.70;5.60;93921.00;;;;7382878;19;20440;-77
2023/04/11 07:31:55;;;;;;;5.30;1.60;;;5.40;1.00;5.50;93897.00;;;;7383647;19;20153;-77
2023/04/11 07:34:28;;;;;;;5.30;1.57;;;5.50;1.00;5.90;93927.00;;;;7383810;19;20129;-75
2023/04/11 07:37:02;;;;;;;7.20;1.53;;;5.80;1.00;6.10;93912.00;;;;7380964;19;20133;-77
2023/04/11 07:39:39;;;;;;;9.33;2.10;;;6.00;99.90;6.80;93913.00;;;;7382179;19;20145;-75
2023/04/11 07:42:15;;;;;;;8.47;2.83;;;6.20;99.90;6.30;93913.00;;;;7384042;19;23813;-78
2023/04/11 07:44:49;;;;;;;7.40;2.00;;;;;6.20;93926.00;;;;7380019;19;20125;-78
2023/04/11 07:47:17;;;;;;;3.93;1.60;;;6.40;1.00;6.00;93938.00;;;;7381084;19;20160;-77
2023/04/11 07:49:51;;;;;;;3.80;1.43;;;6.30;1.00;6.40;93872.00;;;;7381473;19;20143;-77
2023/04/11 07:52:25;;;;;;;6.03;1.57;;;6.30;99.90;6.90;93859.00;;;;7385277;19;20474;-77
2023/04/11 07:54:59;;;;;;;6.30;2.00;;;6.70;1.00;7.30;93900.00;;;;7387722;19;20120;-79
2023/04/11 07:57:34;;;;;;;3.90;1.57;;;6.80;99.90;7.60;93884.00;;;;7381093;19;20666;-79
2023/04/11 08:00:03;;;;;;;6.53;1.90;;;7.20;1.00;7.90;93863.00;;;;7381935;19;20159;-80
2023/04/11 08:02:39;;;;;;;5.90;1.60;;;7.40;50.10;8.50;93904.00;;;;7380926;19;20144;-79
2023/04/11 08:05:08;;;;;;;7.37;1.87;;;7.80;99.90;8.70;93914.00;;;;7381072;19;20176;-79
2023/04/11 08:07:49;;;;;;;8.90;1.73;;;7.80;1.00;8.90;93927.00;;;;7381563;19;20148;-79
2023/04/11 08:10:24;;;;;;;6.37;1.80;;;7.60;1.00;7.40;93915.00;;;;7376812;19;20145;-81
2023/04/11 08:12:59;;;;;;;3.90;1.40;;;7.50;99.90;7.80;93886.00;;;;7384118;19;20146;-83
2023/04/11 08:15:26;;;;;;;5.77;1.80;;;7.70;99.90;7.60;93903.00;;;;7384468;19;22035;-80
2023/04/11 08:18:03;;;;;;;5.80;2.10;;;7.70;99.90;7.50;93927.00;;;;7384559;19;20125;-80
2023/04/11 08:20:39;;;;;;;8.00;1.73;;;7.70;1.00;7.20;93903.00;;;;7381257;19;20160;-79
2023/04/11 08:23:14;;;;;;;3.47;1.90;;;7.60;1.00;7.30;93928.00;;;;7383120;19;20148;-80
2023/04/11 08:25:42;;;;;;;5.33;1.70;;;7.60;1.00;7.40;93922.00;;;;7382818;19;20145;-79
2023/04/11 08:28:17;;;;;;;6.10;1.70;;;7.40;1.00;7.50;93930.00;;;;7386775;19;20129;-79
2023/04/11 08:30:44;;;;;;;5.40;1.40;;;7.40;1.00;7.90;93936.00;;;;7385040;19;20144;-82
2023/04/11 08:33:14;;;;;;;4.80;1.83;;;7.40;1.00;7.90;93932.00;;;;7385830;19;20149;-80
2023/04/11 08:35:47;;;;;;;8.33;1.80;;;7.60;1.00;7.20;93894.00;;;;7387295;19;20140;-78
2023/04/11 08:38:15;;;;;;;7.10;1.50;;;7.40;1.00;7.30;93920.00;;;;7383366;19;20180;-77
2023/04/11 08:40:50;;;;;;;6.10;1.57;;;7.20;1.00;7.50;93958.00;;;;7384048;19;20855;-81
2023/04/11 08:43:25;;;;;;;6.57;1.80;;;7.10;1.00;7.50;93923.00;;;;7382230;19;20157;-81
2023/04/11 08:46:04;;;;;;;3.23;1.33;;;7.40;1.00;8.60;93926.00;;;;7383624;19;20168;-78
2023/04/11 08:48:32;;;;;;;5.97;1.37;;;7.90;1.00;8.50;93954.00;;;;7384743;19;20151;-79
2023/04/11 08:51:07;;;;;;;7.67;1.70;;;8.30;99.90;8.50;93920.00;;;;7386891;19;20152;-80
2023/04/11 08:53:41;;;;;;;6.53;1.57;;;8.40;99.90;9.10;93925.00;;;;7385730;19;20125;-79
2023/04/11 08:56:16;;;;;;;5.20;1.55;;;8.50;99.90;8.30;93896.00;;;;7386436;19;20188;-78
2023/04/11 08:58:44;;;;;;;5.97;1.80;;;8.30;99.90;8.50;93906.00;;;;7383370;19;20200;-76
2023/04/11 09:01:32;;;;;;;4.30;1.37;;;8.10;99.90;8.10;93896.00;;;;7384089;19;20141;-77
2023/04/11 09:04:04;;;;;;;6.57;1.70;;;8.00;99.90;8.50;93909.00;;;;7383977;19;20141;-84
2023/04/11 09:07:04;;;;;;;4.03;1.50;;;7.90;99.90;8.50;93906.00;;;;7384151;19;20523;-78
2023/04/11 09:09:32;;;;;;;5.63;1.70;;;8.00;99.90;8.40;93916.00;;;;7379235;19;20181;-77
2023/04/11 09:12:07;;;;;;;6.67;1.43;;;8.10;99.90;8.80;93912.00;;;;7380696;19;20128;-80
2023/04/11 09:14:43;;;;;;;8.33;1.70;;;8.20;99.90;8.60;93944.00;;;;7384166;19;20152;-79
2023/04/11 09:17:17;;;;;;;4.63;1.57;;;8.50;99.90;8.40;93928.00;;;;7383213;19;20157;-79
2023/04/11 09:19:45;;;;;;;7.47;1.57;;;8.30;99.90;8.50;93924.00;;;;7391348;19;20151;-80
2023/04/11 09:22:35;;;;;;;4.17;1.67;;;8.40;99.90;8.40;93938.00;;;;7392222;19;20154;-80
2023/04/11 09:25:10;;;;;;;5.55;1.70;;;8.70;99.90;8.20;93864.00;;;;7391414;19;20141;-84
2023/04/11 09:27:38;;;;;;;6.47;1.73;;;8.90;99.90;8.00;93880.00;;;;7391271;19;20200;-80
2023/04/11 09:30:25;;;;;;;7.10;2.20;;;8.80;99.90;8.80;93947.00;;;;7390894;19;20139;-77
2023/04/11 09:33:23;;;;;;;7.73;2.07;;;8.40;99.90;9.30;93945.00;;;;7385242;19;20149;-78
2023/04/11 09:35:54;;;;;;;5.93;1.80;;;8.40;99.90;8.80;93945.00;;;;7389326;19;20161;-79
2023/04/11 09:38:31;;;;;;;6.07;1.87;;;8.50;99.90;9.40;93936.00;;;;7383242;19;20155;-75
2023/04/11 09:41:06;;;;;;;5.00;2.00;;;8.60;99.90;9.60;93911.00;;;;7385191;19;20135;-76
2023/04/11 09:43:56;;;;;;;8.98;1.70;;;8.70;75.70;9.90;93931.00;;;;7385367;19;20192;-77
2023/04/11 09:46:30;;;;;;;4.60;1.58;;;8.90;99.90;9.40;93939.00;;;;7386697;19;20160;-78
2023/04/11 09:49:00;;;;;;;6.10;1.60;;;9.10;97.40;8.90;93961.00;;;;7387500;19;20144;-76
2023/04/11 09:51:41;;;;;;;4.43;1.75;;;8.50;99.90;8.60;93939.00;;;;7387878;19;20132;-78
2023/04/11 09:54:19;;;;;;;3.80;1.63;;;8.30;99.90;7.80;93945.00;;;;7388033;19;20132;-76
2023/04/11 09:56:56;;;;;;;7.63;1.90;;;8.20;99.90;7.60;93953.00;;;;7388529;19;20146;-77
2023/04/11 09:59:26;;;;;;;7.53;2.03;;;7.70;99.90;6.60;93970.00;;;;7389684;19;20136;-80
2023/04/11 10:02:00;;;;;;;4.67;1.50;;;7.30;99.90;7.10;93954.00;;;;7385834;19;20152;-77
2023/04/11 10:04:37;;;;;;;4.43;1.70;;;7.10;1.00;8.10;93964.00;;;;7386788;19;21231;-77
2023/04/11 10:07:23;;;;;;;4.33;1.60;;;7.30;99.90;8.40;93971.00;;;;7389122;19;20552;-77
2023/04/11 10:09:57;;;;;;;4.53;1.73;;;7.60;99.90;8.40;93963.00;;;;7385813;19;20145;-78
2023/04/11 10:12:32;;;;;;;5.07;1.53;;;7.70;99.90;8.80;93937.00;;;;7388129;19;20134;-77
2023/04/11 10:15:07;;;;;;;6.93;1.80;;;7.90;99.90;9.60;93959.00;;;;7383196;19;20655;-77
2023/04/11 10:18:02;;;;;;;9.03;1.70;;;8.50;99.90;9.40;93952.00;;;;7387624;19;20140;-79
2023/04/11 10:20:45;;;;;;;5.45;1.50;;;8.90;77.10;8.50;93941.00;;;;7388021;19;20529;-76
2023/04/11 10:23:19;;;;;;;2.87;1.50;;;9.20;1.00;8.90;93952.00;;;;7387424;19;20500;-74
2023/04/11 10:26:08;;;;;;;5.72;1.50;;;9.20;1.00;10.60;93944.00;;;;7383535;19;20140;-76
2023/04/11 10:28:39;;;;;;;5.68;1.80;;;9.40;1.00;8.80;93966.00;;;;7384854;19;20208;-77
2023/04/11 10:31:16;;;;;;;7.90;1.88;;;9.30;1.00;8.90;93986.00;;;;7384735;19;20525;-77
2023/04/11 10:34:13;;;;;;;5.55;1.90;;;9.40;1.00;9.50;93975.00;;;;7387220;19;20507;-76
2023/04/11 10:37:03;;;;;;;7.18;2.33;;;9.20;10.00;9.20;93941.00;;;;7382798;19;20545;-77
2023/04/11 10:39:52;;;;;;;4.47;1.63;;;9.10;3.50;8.80;93962.00;;;;7385071;19;20510;-75
2023/04/11 10:42:30;;;;;;;5.10;1.70;;;9.20;1.00;9.40;93954.00;;;;7385118;19;20140;-77
2023/04/11 10:45:29;;;;;;;5.07;1.50;;;9.10;1.00;10.30;93946.00;;;;7384757;19;20762;-77
2023/04/11 10:48:10;;;;;;;8.43;2.15;;;9.30;1.00;10.60;93952.00;;;;7384290;19;20145;-77
2023/04/11 10:50:44;;;;;;;2.88;1.33;;;10.00;1.00;11.30;93935.00;;;;7388192;19;20146;-78
2023/04/11 10:53:36;;;;;;;6.32;1.70;;;10.60;1.00;10.60;93959.00;;;;7385723;19;20652;-76
2023/04/11 10:56:10;;;;;;;5.28;1.70;;;10.90;1.00;10.30;93955.00;;;;7386045;19;20293;-77
2023/04/11 10:58:39;;;;;;;11.43;1.60;;;10.90;1.00;10.20;93941.00;;;;7384679;19;20153;-77
2023/04/11 11:01:17;;;;;;;4.72;1.60;;;10.70;1.00;9.70;93989.00;;;;7387903;19;20137;-77
2023/04/11 11:04:10;;;;;;;3.03;1.30;;;10.10;1.00;9.80;93984.00;;;;7387132;19;20136;-78
2023/04/11 11:06:46;;;;;;;3.85;1.50;;;9.80;1.00;10.00;93961.00;;;;7387898;19;20156;-77
2023/04/11 11:09:30;;;;;;;6.35;2.13;;;9.50;1.00;10.60;93971.00;;;;7383007;19;21186;-77
2023/04/11 11:12:15;;;;;;;6.72;1.95;;;9.90;1.00;11.10;93947.00;;;;7384646;19;20211;-77
2023/04/11 11:14:48;;;;;;;10.77;1.50;;;10.40;1.00;10.60;93964.00;;;;7387563;19;20125;-77
2023/04/11 11:17:16;;;;;;;6.00;1.90;;;10.90;1.00;10.90;93951.00;;;;7386660;19;20132;-75
2023/04/11 11:19:50;;;;;;;5.40;1.52;;;10.20;1.00;11.30;93980.00;;;;7383069;19;20146;-77
2023/04/11 11:22:25;;;;;;;3.75;1.45;;;10.40;1.00;9.60;93969.00;;;;7386809;19;20190;-77
2023/04/11 11:25:09;;;;;;;4.07;1.60;;;10.30;1.00;10.60;93973.00;;;;7375457;19;20148;-77
2023/04/11 11:27:43;;;;;;;3.25;1.38;;;10.40;1.00;9.70;93966.00;;;;7382082;19;20521;-77
2023/04/11 11:30:18;;;;;;;6.47;1.55;;;10.20;1.00;10.60;93986.00;;;;7381993;19;20184;-77
2023/04/11 11:32:46;;;;;;;8.25;1.60;;;9.80;1.00;10.10;93968.00;;;;7381265;19;20152;-76
2023/04/11 11:35:20;;;;;;;3.72;1.27;;;9.70;1.00;10.20;93959.00;;;;7382981;19;20121;-76
2023/04/11 11:37:53;;;;;;;3.40;1.38;;;9.70;1.00;10.20;93953.00;;;;7381924;19;20508;-77
2023/04/11 11:40:28;;;;;;;4.68;1.63;;;10.10;1.00;10.20;93931.00;;;;7380855;19;20144;-76
2023/04/11 11:43:01;;;;;;;5.43;1.65;;;10.30;1.00;10.60;93960.00;;;;7379336;19;20152;-77